Time;durP1;ratioP1;P1;durP2;ratioP2;P2;SDS_P1;SDS_P2;PMS_P1;PMS_P2;Temp;Humidity;BMP_temperature;BMP_pressure;BME280_temperature;BME280_humidity;BME280_pressure;Samples;Min_cycle;Max_cycle;Signal;HPM_P1;HPM_P2
2022/01/16 00:01:22;;;;;;;392.55;173.65;;;;;;;;;;4981033;28;20035;-64
2022/01/16 00:04:07;;;;;;;338.80;147.88;;;;;;;;;;4984577;28;20479;-62
2022/01/16 00:06:34;;;;;;;348.13;147.85;;;;;;;;;;4993800;28;20029;-64
2022/01/16 00:09:00;;;;;;;327.95;145.02;;;;;;;;;;4994231;28;20050;-62
2022/01/16 00:11:27;;;;;;;299.60;132.43;;;;;;;;;;4993643;28;20053;-63
2022/01/16 00:13:53;;;;;;;305.77;132.73;;;;;;;;;;4995308;28;20046;-62
2022/01/16 00:16:19;;;;;;;290.85;127.30;;;;;;;;;;4997039;28;20434;-64
2022/01/16 00:18:49;;;;;;;296.52;129.38;;;;;;;;;;4980645;28;20427;-65
2022/01/16 00:21:26;;;;;;;323.52;140.13;;;;;;;;;;4978406;28;20022;-64
2022/01/16 00:23:52;;;;;;;278.27;122.80;;;;;;;;;;4977854;28;20027;-64
2022/01/16 00:26:19;;;;;;;251.50;111.97;;;;;;;;;;4988588;28;20116;-65
2022/01/16 00:28:45;;;;;;;249.73;106.80;;;;;;;;;;4996742;28;20371;-64
2022/01/16 00:31:12;;;;;;;273.02;117.22;;;;;;;;;;4997209;28;20422;-62
2022/01/16 00:33:39;;;;;;;265.90;115.18;;;;;;;;;;4997358;28;20031;-62
2022/01/16 00:36:06;;;;;;;273.77;111.93;;;;;;;;;;4997644;28;20033;-65
2022/01/16 00:38:33;;;;;;;253.55;114.07;;;;;;;;;;4997142;28;20030;-63
2022/01/16 00:40:59;;;;;;;269.70;115.70;;;;;;;;;;4989351;28;20023;-63
2022/01/16 00:43:25;;;;;;;245.10;108.22;;;;;;;;;;4977672;28;20038;-64
2022/01/16 00:45:52;;;;;;;241.40;99.13;;;;;;;;;;4977408;28;20023;-64
2022/01/16 00:48:18;;;;;;;226.25;104.38;;;;;;;;;;4977841;28;20035;-63
2022/01/16 00:50:44;;;;;;;248.43;111.78;;;;;;;;;;4977856;28;20034;-63
2022/01/16 00:53:10;;;;;;;237.93;102.43;;;;;;;;;;4977526;28;20058;-64
2022/01/16 00:55:38;;;;;;;229.15;100.25;;;;;;;;;;4977618;28;20084;-63
2022/01/16 00:58:05;;;;;;;222.68;94.93;;;;;;;;;;4977831;28;20034;-64
2022/01/16 01:00:32;;;;;;;226.18;99.70;;;;;;;;;;4977593;28;20023;-63
2022/01/16 01:02:58;;;;;;;244.93;102.72;;;;;;;;;;4981680;28;20026;-65
2022/01/16 01:05:25;;;;;;;268.88;105.93;;;;;;;;;;4977761;28;20091;-64
2022/01/16 01:07:51;;;;;;;242.85;105.30;;;;;;;;;;4977295;28;20047;-63
2022/01/16 01:10:18;;;;;;;243.20;105.00;;;;;;;;;;4977141;28;20023;-63
2022/01/16 01:12:55;;;;;;;244.40;105.22;;;;;;;;;;4978842;28;20072;-63
2022/01/16 01:15:25;;;;;;;239.73;105.60;;;;;;;;;;4997189;28;20015;-61
2022/01/16 01:17:51;;;;;;;242.90;103.28;;;;;;;;;;4996711;28;20431;-64
2022/01/16 01:20:19;;;;;;;261.10;114.15;;;;;;;;;;4996603;28;20026;-65
2022/01/16 01:22:46;;;;;;;265.02;112.70;;;;;;;;;;4996408;28;20475;-63
2022/01/16 01:25:13;;;;;;;271.15;112.03;;;;;;;;;;4996366;28;20037;-63
2022/01/16 01:27:41;;;;;;;221.95;101.93;;;;;;;;;;4996369;28;20030;-65
2022/01/16 01:30:09;;;;;;;234.40;99.50;;;;;;;;;;4996425;28;20074;-64
2022/01/16 01:32:36;;;;;;;252.23;111.45;;;;;;;;;;4995104;28;20037;-64
2022/01/16 01:35:03;;;;;;;243.55;107.47;;;;;;;;;;4995890;28;20026;-65
2022/01/16 01:37:29;;;;;;;242.35;111.40;;;;;;;;;;4989864;28;20027;-65
2022/01/16 01:39:55;;;;;;;228.27;101.82;;;;;;;;;;4977012;28;20375;-65
2022/01/16 01:42:23;;;;;;;197.10;89.05;;;;;;;;;;4976538;28;20075;-63
2022/01/16 01:53:03;;;;;;;211.25;89.45;;;;;;;;;;4976847;28;20046;-64
2022/01/16 01:55:30;;;;;;;198.65;86.15;;;;;;;;;;4976081;28;20113;-63
2022/01/16 01:57:56;;;;;;;229.98;93.03;;;;;;;;;;4976415;28;20027;-64
2022/01/16 02:00:23;;;;;;;210.75;88.40;;;;;;;;;;4976620;28;20044;-63
2022/01/16 02:03:11;;;;;;;197.63;89.28;;;;;;;;;;4976193;28;20371;-65
2022/01/16 02:05:37;;;;;;;176.27;83.35;;;;;;;;;;4975747;28;20431;-64
2022/01/16 02:08:05;;;;;;;188.35;88.72;;;;;;;;;;4976280;28;20497;-65
2022/01/16 02:10:31;;;;;;;212.90;91.80;;;;;;;;;;4976426;28;20026;-63
2022/01/16 02:13:02;;;;;;;194.07;90.85;;;;;;;;;;4976419;28;20046;-64
2022/01/16 02:32:26;;;;;;;147.25;65.38;;;;;;;;;;4952765;28;20384;-64
2022/01/16 02:34:47;;;;;;;165.90;67.30;;;;;;;;;;4980934;28;20039;-64
2022/01/16 02:37:16;;;;;;;153.20;64.88;;;;;;;;;;4957575;28;20022;-62
2022/01/16 02:39:48;;;;;;;151.23;62.80;;;;;;;;;;4975892;28;20022;-64
2022/01/16 02:42:14;;;;;;;148.93;65.05;;;;;;;;;;4983841;28;20113;-63
2022/01/16 02:44:46;;;;;;;163.85;69.10;;;;;;;;;;4994990;28;20026;-63
2022/01/16 02:47:14;;;;;;;186.60;74.00;;;;;;;;;;4995295;28;20018;-64
2022/01/16 02:49:41;;;;;;;158.73;71.47;;;;;;;;;;4995207;28;20030;-65
2022/01/16 02:52:08;;;;;;;146.55;61.67;;;;;;;;;;4994850;28;20438;-62
2022/01/16 02:54:38;;;;;;;144.20;63.13;;;;;;;;;;4994919;28;20023;-64
2022/01/16 02:57:05;;;;;;;138.90;55.47;;;;;;;;;;4995036;28;20025;-64
2022/01/16 02:59:31;;;;;;;107.80;46.90;;;;;;;;;;4994441;28;20023;-65
2022/01/16 03:01:57;;;;;;;119.40;54.55;;;;;;;;;;4994619;28;20109;-63
2022/01/16 03:04:24;;;;;;;113.97;52.58;;;;;;;;;;4994567;28;20085;-63
2022/01/16 03:06:50;;;;;;;130.10;59.13;;;;;;;;;;4994775;28;20026;-66
2022/01/16 03:09:17;;;;;;;126.20;56.88;;;;;;;;;;4995205;28;20050;-64
2022/01/16 03:11:49;;;;;;;137.35;57.85;;;;;;;;;;4994497;28;20029;-67
2022/01/16 03:14:16;;;;;;;138.48;61.92;;;;;;;;;;4994740;28;20191;-66
2022/01/16 03:16:46;;;;;;;159.30;68.90;;;;;;;;;;4994369;28;20483;-65
2022/01/16 03:22:02;;;;;;;156.48;64.97;;;;;;;;;;4994567;28;20042;-64
2022/01/16 03:24:31;;;;;;;144.20;62.85;;;;;;;;;;4994633;28;20073;-63
2022/01/16 03:27:00;;;;;;;137.23;60.22;;;;;;;;;;4993938;28;20022;-65
2022/01/16 03:29:27;;;;;;;143.07;60.45;;;;;;;;;;4994241;28;20022;-63
2022/01/16 03:31:54;;;;;;;139.43;61.20;;;;;;;;;;4994458;28;20490;-63
2022/01/16 03:34:20;;;;;;;134.48;59.50;;;;;;;;;;4994132;28;20026;-63
2022/01/16 03:36:46;;;;;;;133.77;60.40;;;;;;;;;;4977069;28;20459;-63
2022/01/16 03:39:12;;;;;;;147.88;67.75;;;;;;;;;;4994419;28;20068;-63
2022/01/16 03:41:39;;;;;;;166.38;72.82;;;;;;;;;;4994310;28;20026;-63
2022/01/16 03:44:05;;;;;;;154.00;69.15;;;;;;;;;;4994234;28;20041;-64
2022/01/16 03:46:42;;;;;;;148.95;68.25;;;;;;;;;;4994029;28;20058;-64
2022/01/16 03:49:13;;;;;;;140.93;61.13;;;;;;;;;;4994413;28;20094;-64
2022/01/16 03:51:39;;;;;;;;;;;;;;;;;;4994893;28;20023;-63
2022/01/16 03:54:07;;;;;;;125.97;56.00;;;;;;;;;;4993601;28;19909;-63
2022/01/16 03:56:34;;;;;;;139.50;59.85;;;;;;;;;;4993939;28;20072;-67
2022/01/16 03:59:00;;;;;;;143.15;62.25;;;;;;;;;;4994177;28;20410;-63
2022/01/16 04:01:27;;;;;;;167.20;74.00;;;;;;;;;;4993861;28;20027;-64
2022/01/16 04:03:53;;;;;;;154.52;68.95;;;;;;;;;;4982140;28;20042;-64
2022/01/16 04:06:20;;;;;;;159.18;67.00;;;;;;;;;;4974716;28;20147;-63
2022/01/16 04:08:47;;;;;;;152.52;62.92;;;;;;;;;;4974027;28;20122;-64
2022/01/16 04:11:13;;;;;;;146.98;64.28;;;;;;;;;;4974968;28;20030;-64
2022/01/16 04:13:48;;;;;;;140.00;60.00;;;;;;;;;;4974921;28;20026;-65
2022/01/16 04:16:14;;;;;;;131.73;59.97;;;;;;;;;;4974149;28;20495;-63
2022/01/16 04:18:40;;;;;;;127.30;55.55;;;;;;;;;;4974865;28;20027;-64
2022/01/16 04:21:06;;;;;;;127.70;54.25;;;;;;;;;;4974321;28;20530;-65
2022/01/16 04:23:33;;;;;;;115.63;48.88;;;;;;;;;;4974219;28;20120;-64
2022/01/16 04:25:59;;;;;;;103.05;46.35;;;;;;;;;;4974475;28;20023;-65
2022/01/16 04:28:25;;;;;;;119.28;47.67;;;;;;;;;;4974226;28;20027;-66
2022/01/16 04:30:54;;;;;;;113.90;46.45;;;;;;;;;;4974271;28;20154;-66
2022/01/16 04:33:20;;;;;;;115.25;47.67;;;;;;;;;;4974743;28;20026;-64
2022/01/16 04:35:47;;;;;;;111.78;44.97;;;;;;;;;;4974156;28;20041;-64
2022/01/16 04:38:13;;;;;;;132.70;48.60;;;;;;;;;;4974067;28;20451;-65
2022/01/16 04:43:47;;;;;;;123.35;43.70;;;;;;;;;;4974443;28;20495;-64
2022/01/16 04:46:13;;;;;;;119.43;45.72;;;;;;;;;;4974678;28;20053;-64
2022/01/16 04:48:39;;;;;;;100.15;38.88;;;;;;;;;;4974590;28;20102;-65
2022/01/16 04:51:05;;;;;;;109.45;40.65;;;;;;;;;;4974293;28;20027;-65
2022/01/16 04:53:31;;;;;;;116.10;42.40;;;;;;;;;;4974039;28;20031;-64
2022/01/16 04:55:57;;;;;;;106.82;40.92;;;;;;;;;;4974362;28;20026;-65
2022/01/16 04:58:24;;;;;;;102.35;39.25;;;;;;;;;;4973751;28;20030;-64
2022/01/16 05:00:50;;;;;;;102.63;37.88;;;;;;;;;;4978883;28;20022;-65
2022/01/16 05:03:16;;;;;;;106.03;38.65;;;;;;;;;;4978013;28;20030;-65
2022/01/16 05:05:42;;;;;;;101.47;39.50;;;;;;;;;;4995434;28;20131;-64
2022/01/16 05:08:08;;;;;;;105.85;39.13;;;;;;;;;;4995657;28;20399;-64
2022/01/16 05:10:34;;;;;;;130.63;50.90;;;;;;;;;;4995907;28;20017;-65
2022/01/16 05:13:26;;;;;;;102.68;41.40;;;;;;;;;;4995005;28;20034;-65
2022/01/16 05:18:32;;;;;;;87.07;35.63;;;;;;;;;;4995615;28;20391;-64
2022/01/16 05:20:59;;;;;;;110.18;42.42;;;;;;;;;;4996535;28;20023;-65
2022/01/16 05:23:25;;;;;;;115.32;45.88;;;;;;;;;;4996835;28;20037;-64
2022/01/16 05:25:51;;;;;;;112.97;44.88;;;;;;;;;;4995580;28;20025;-65
2022/01/16 05:28:17;;;;;;;121.90;46.28;;;;;;;;;;4992809;28;20057;-65
2022/01/16 05:30:43;;;;;;;95.75;41.88;;;;;;;;;;4995084;28;20497;-64
2022/01/16 05:33:09;;;;;;;94.40;41.90;;;;;;;;;;4995576;28;20037;-64
2022/01/16 05:35:36;;;;;;;102.43;45.70;;;;;;;;;;4995189;28;20064;-64
2022/01/16 05:38:02;;;;;;;109.97;45.88;;;;;;;;;;4995531;28;20026;-65
2022/01/16 05:40:29;;;;;;;104.20;45.92;;;;;;;;;;4994900;28;20033;-64
2022/01/16 05:42:55;;;;;;;97.45;46.13;;;;;;;;;;4995556;28;20421;-65
2022/01/16 05:45:22;;;;;;;128.00;54.78;;;;;;;;;;4995266;28;20026;-64
2022/01/16 05:47:48;;;;;;;106.38;48.50;;;;;;;;;;4992126;28;20018;-64
2022/01/16 05:50:14;;;;;;;286.75;116.28;;;;;;;;;;4978251;28;20153;-65
2022/01/16 05:52:41;;;;;;;221.55;95.82;;;;;;;;;;4995442;28;20026;-65
2022/01/16 05:55:09;;;;;;;241.27;81.38;;;;;;;;;;4993615;28;20471;-63
2022/01/16 05:57:35;;;;;;;99.07;35.47;;;;;;;;;;4994759;28;20026;-65
2022/01/16 06:00:05;;;;;;;82.07;35.75;;;;;;;;;;4994488;28;20026;-63
2022/01/16 06:02:32;;;;;;;77.18;36.28;;;;;;;;;;4994440;28;20088;-64
2022/01/16 06:04:59;;;;;;;90.97;34.67;;;;;;;;;;4994844;28;20610;-63
2022/01/16 06:07:25;;;;;;;89.35;35.63;;;;;;;;;;4994026;28;20511;-64
2022/01/16 06:09:52;;;;;;;73.68;32.08;;;;;;;;;;4995279;28;20022;-64
2022/01/16 06:12:19;;;;;;;80.75;36.13;;;;;;;;;;4993883;28;20021;-64
2022/01/16 06:14:45;;;;;;;86.80;36.30;;;;;;;;;;4994105;28;20022;-64
2022/01/16 06:17:11;;;;;;;83.82;35.78;;;;;;;;;;4995334;28;20022;-64
2022/01/16 06:19:37;;;;;;;89.60;40.20;;;;;;;;;;4995113;28;20037;-64
2022/01/16 06:22:03;;;;;;;95.53;39.33;;;;;;;;;;4994816;28;20034;-63
2022/01/16 06:24:30;;;;;;;99.13;40.15;;;;;;;;;;4994190;28;20076;-63
2022/01/16 06:26:56;;;;;;;92.97;39.55;;;;;;;;;;4977170;28;20470;-63
2022/01/16 06:29:23;;;;;;;149.82;62.00;;;;;;;;;;4994583;28;20022;-63
2022/01/16 06:31:49;;;;;;;127.65;53.10;;;;;;;;;;4981971;28;20035;-64
2022/01/16 06:34:15;;;;;;;211.80;92.15;;;;;;;;;;4987645;28;20040;-64
2022/01/16 06:36:41;;;;;;;138.55;59.88;;;;;;;;;;4975968;28;20019;-64
2022/01/16 06:39:08;;;;;;;127.15;52.30;;;;;;;;;;4992092;28;20041;-64
2022/01/16 06:41:35;;;;;;;117.43;52.85;;;;;;;;;;4994214;28;20030;-65
2022/01/16 06:44:06;;;;;;;123.55;51.50;;;;;;;;;;4994170;28;20034;-63
2022/01/16 06:47:00;;;;;;;152.32;61.03;;;;;;;;;;4993387;28;20022;-63
2022/01/16 06:49:39;;;;;;;145.75;61.13;;;;;;;;;;4991545;28;20113;-63
2022/01/16 06:52:05;;;;;;;136.63;57.80;;;;;;;;;;4993248;28;20034;-63
2022/01/16 06:54:32;;;;;;;140.70;58.15;;;;;;;;;;4992253;28;20367;-64
2022/01/16 06:56:58;;;;;;;178.25;74.95;;;;;;;;;;4993424;28;20026;-68
2022/01/16 06:59:25;;;;;;;194.60;76.93;;;;;;;;;;4993751;28;20025;-64
2022/01/16 07:01:51;;;;;;;153.90;63.70;;;;;;;;;;4993776;28;20023;-64
2022/01/16 07:04:18;;;;;;;130.52;54.88;;;;;;;;;;4993398;28;20109;-67
2022/01/16 07:06:46;;;;;;;125.40;53.65;;;;;;;;;;4993596;28;20026;-69
2022/01/16 07:09:17;;;;;;;129.02;56.70;;;;;;;;;;4993611;28;20061;-68
2022/01/16 07:11:44;;;;;;;159.55;65.88;;;;;;;;;;4990298;28;20022;-64
2022/01/16 07:14:10;;;;;;;163.82;71.20;;;;;;;;;;4993104;28;20023;-64
2022/01/16 07:16:38;;;;;;;162.38;72.13;;;;;;;;;;4992655;28;20117;-67
2022/01/16 07:19:07;;;;;;;198.00;84.20;;;;;;;;;;4990701;28;20404;-67
2022/01/16 07:21:35;;;;;;;171.77;78.53;;;;;;;;;;4992428;28;20032;-64
2022/01/16 07:24:01;;;;;;;170.73;75.47;;;;;;;;;;4991596;28;20053;-63
2022/01/16 07:26:27;;;;;;;169.23;76.90;;;;;;;;;;4974108;28;20375;-63
2022/01/16 07:28:53;;;;;;;164.32;76.93;;;;;;;;;;4991297;28;20037;-64
2022/01/16 07:31:20;;;;;;;171.05;76.90;;;;;;;;;;4991036;28;20419;-65
2022/01/16 07:33:46;;;;;;;147.77;69.65;;;;;;;;;;4992008;28;20101;-67
2022/01/16 07:36:12;;;;;;;120.47;56.58;;;;;;;;;;4993110;28;20018;-65
2022/01/16 07:38:39;;;;;;;101.97;48.40;;;;;;;;;;4992701;28;20038;-65
2022/01/16 07:41:11;;;;;;;113.38;48.72;;;;;;;;;;4990043;28;20019;-67
2022/01/16 07:43:37;;;;;;;101.50;47.30;;;;;;;;;;4991168;28;20031;-63
2022/01/16 07:46:09;;;;;;;114.40;50.78;;;;;;;;;;4990594;28;20025;-68
2022/01/16 07:48:41;;;;;;;113.13;49.92;;;;;;;;;;4992669;28;20113;-68
2022/01/16 07:51:07;;;;;;;106.57;51.40;;;;;;;;;;4990557;28;20483;-64
2022/01/16 07:53:34;;;;;;;152.15;67.15;;;;;;;;;;4973898;28;20033;-65
2022/01/16 07:56:00;;;;;;;159.05;70.15;;;;;;;;;;4984428;28;20031;-65
2022/01/16 07:58:26;;;;;;;167.35;78.82;;;;;;;;;;4993123;28;20064;-65
2022/01/16 08:00:52;;;;;;;160.98;75.28;;;;;;;;;;4976013;28;20361;-63
2022/01/16 08:03:19;;;;;;;183.27;83.28;;;;;;;;;;4993966;28;20023;-63
2022/01/16 08:05:45;;;;;;;178.48;81.65;;;;;;;;;;4992507;28;20626;-63
2022/01/16 08:08:11;;;;;;;195.73;91.30;;;;;;;;;;4993509;28;20504;-63
2022/01/16 08:10:38;;;;;;;181.07;85.28;;;;;;;;;;4993791;28;20476;-64
2022/01/16 08:13:04;;;;;;;178.25;83.38;;;;;;;;;;4993635;28;20033;-64
2022/01/16 08:15:30;;;;;;;173.45;82.65;;;;;;;;;;4993971;28;20040;-63
2022/01/16 08:17:56;;;;;;;164.68;81.50;;;;;;;;;;4992864;28;21328;-63
2022/01/16 08:20:23;;;;;;;169.13;79.25;;;;;;;;;;4992550;28;20560;-63
2022/01/16 08:23:07;;;;;;;167.07;79.85;;;;;;;;;;4992149;28;20387;-64
2022/01/16 08:25:35;;;;;;;166.73;78.68;;;;;;;;;;4992130;28;20062;-66
2022/01/16 08:28:01;;;;;;;155.40;76.05;;;;;;;;;;4993591;28;20030;-65
2022/01/16 08:30:27;;;;;;;173.70;80.20;;;;;;;;;;4993341;28;20034;-63
2022/01/16 08:32:53;;;;;;;185.98;92.07;;;;;;;;;;4993270;28;20080;-65
2022/01/16 08:35:20;;;;;;;204.77;99.13;;;;;;;;;;4994515;28;20026;-65
2022/01/16 08:37:46;;;;;;;178.95;90.20;;;;;;;;;;4995623;28;20026;-64
2022/01/16 08:40:12;;;;;;;180.90;89.45;;;;;;;;;;4995548;28;20022;-63
2022/01/16 08:42:40;;;;;;;177.25;89.53;;;;;;;;;;4995490;28;20093;-65
2022/01/16 08:45:07;;;;;;;179.10;92.60;;;;;;;;;;4995377;28;20102;-65
2022/01/16 08:47:33;;;;;;;182.50;89.88;;;;;;;;;;4995737;28;20019;-64
2022/01/16 08:50:02;;;;;;;187.70;94.75;;;;;;;;;;4997376;28;20113;-64
2022/01/16 08:52:29;;;;;;;186.32;95.45;;;;;;;;;;4997338;28;20023;-64
2022/01/16 08:54:55;;;;;;;208.77;113.97;;;;;;;;;;4997242;28;20037;-64
2022/01/16 08:57:21;;;;;;;206.95;105.68;;;;;;;;;;4997113;28;20026;-64
2022/01/16 08:59:48;;;;;;;219.70;115.32;;;;;;;;;;4979758;28;20459;-65
2022/01/16 09:02:14;;;;;;;213.80;107.35;;;;;;;;;;4996630;28;20026;-64
2022/01/16 09:04:40;;;;;;;239.85;121.75;;;;;;;;;;4996998;28;20038;-65
2022/01/16 09:07:06;;;;;;;231.57;120.38;;;;;;;;;;4996247;28;20030;-67
2022/01/16 09:09:32;;;;;;;240.55;125.55;;;;;;;;;;4996199;28;20503;-63
2022/01/16 09:11:59;;;;;;;238.63;130.73;;;;;;;;;;4995936;28;20015;-63
2022/01/16 09:14:26;;;;;;;275.02;149.27;;;;;;;;;;4996332;28;20379;-64
2022/01/16 09:16:52;;;;;;;262.05;143.32;;;;;;;;;;4996841;28;20034;-64
2022/01/16 09:19:18;;;;;;;254.88;138.88;;;;;;;;;;4995810;28;20105;-66
2022/01/16 09:21:44;;;;;;;243.88;130.90;;;;;;;;;;4993567;28;20027;-65
2022/01/16 09:24:10;;;;;;;239.77;130.85;;;;;;;;;;4993829;28;20041;-63
2022/01/16 09:26:36;;;;;;;208.77;114.05;;;;;;;;;;4994032;28;20081;-66
2022/01/16 09:29:03;;;;;;;225.65;124.90;;;;;;;;;;4994947;28;20375;-64
2022/01/16 09:31:29;;;;;;;236.52;129.82;;;;;;;;;;4995872;28;20030;-63
2022/01/16 09:33:56;;;;;;;236.18;131.05;;;;;;;;;;4996129;28;20450;-64
2022/01/16 09:36:22;;;;;;;222.80;127.82;;;;;;;;;;4995891;28;20531;-64
2022/01/16 09:38:49;;;;;;;228.35;128.57;;;;;;;;;;4995810;28;20076;-65
2022/01/16 09:41:15;;;;;;;236.50;126.88;;;;;;;;;;4996230;28;20577;-64
2022/01/16 09:43:42;;;;;;;165.63;94.97;;;;;;;;;;4995679;28;20394;-67
2022/01/16 09:46:08;;;;;;;216.25;124.20;;;;;;;;;;4995913;28;20023;-64
2022/01/16 09:48:35;;;;;;;210.30;120.72;;;;;;;;;;4996122;28;20353;-63
2022/01/16 09:51:01;;;;;;;220.07;126.88;;;;;;;;;;4995927;28;20046;-64
2022/01/16 09:53:29;;;;;;;123.93;72.32;;;;;;;;;;4996275;28;20377;-64
2022/01/16 09:55:55;;;;;;;127.95;71.70;;;;;;;;;;4996069;28;20101;-62
2022/01/16 09:58:22;;;;;;;138.00;77.13;;;;;;;;;;4995714;28;20109;-65
2022/01/16 10:00:48;;;;;;;137.98;75.63;;;;;;;;;;4995625;28;20149;-64
2022/01/16 10:03:32;;;;;;;124.45;69.65;;;;;;;;;;4995508;28;20031;-65
2022/01/16 10:06:12;;;;;;;115.50;67.28;;;;;;;;;;4995715;28;20078;-66
2022/01/16 10:08:39;;;;;;;114.60;63.35;;;;;;;;;;4995797;28;20085;-64
2022/01/16 10:11:27;;;;;;;101.10;57.55;;;;;;;;;;4995401;28;20026;-64
2022/01/16 10:14:13;;;;;;;91.10;52.20;;;;;;;;;;4995458;28;20031;-64
2022/01/16 10:16:40;;;;;;;96.10;56.40;;;;;;;;;;4996108;28;20038;-64
2022/01/16 10:19:31;;;;;;;92.88;55.30;;;;;;;;;;4995368;28;20032;-66
2022/01/16 10:22:04;;;;;;;94.90;52.95;;;;;;;;;;4986132;28;20531;-63
2022/01/16 10:24:33;;;;;;;92.95;52.08;;;;;;;;;;4995346;28;20057;-66
2022/01/16 10:27:08;;;;;;;95.75;53.95;;;;;;;;;;4994093;28;20026;-65
2022/01/16 10:29:51;;;;;;;89.07;52.75;;;;;;;;;;4994426;28;20048;-53
2022/01/16 10:32:18;;;;;;;88.35;52.20;;;;;;;;;;4995347;28;20050;-56
2022/01/16 10:34:45;;;;;;;93.88;56.50;;;;;;;;;;4994389;28;20018;-52
2022/01/16 10:37:23;;;;;;;88.68;53.80;;;;;;;;;;4995326;28;20108;-53
2022/01/16 10:39:52;;;;;;;84.55;50.65;;;;;;;;;;4994044;28;20034;-56
2022/01/16 10:42:20;;;;;;;81.18;48.95;;;;;;;;;;4995233;28;20037;-55
2022/01/16 10:44:46;;;;;;;77.78;48.60;;;;;;;;;;4995237;28;20030;-57
2022/01/16 10:47:23;;;;;;;86.40;50.47;;;;;;;;;;4994725;28;20037;-57
2022/01/16 10:49:59;;;;;;;93.90;53.17;;;;;;;;;;4994870;28;20026;-55
2022/01/16 10:52:25;;;;;;;88.32;55.13;;;;;;;;;;4993901;28;20022;-54
2022/01/16 10:54:51;;;;;;;96.97;55.38;;;;;;;;;;4994060;28;20044;-53
2022/01/16 10:57:18;;;;;;;77.90;49.55;;;;;;;;;;4994248;28;20085;-55
2022/01/16 10:59:45;;;;;;;84.75;51.55;;;;;;;;;;4994651;28;20026;-54
2022/01/16 11:02:13;;;;;;;83.57;51.42;;;;;;;;;;4994681;28;20022;-55
2022/01/16 11:04:39;;;;;;;90.07;53.92;;;;;;;;;;4995129;28;20360;-50
2022/01/16 11:07:06;;;;;;;86.18;50.28;;;;;;;;;;4995175;28;20490;-56
2022/01/16 11:09:32;;;;;;;84.78;50.53;;;;;;;;;;4994167;28;20450;-57
2022/01/16 11:12:02;;;;;;;84.43;52.22;;;;;;;;;;4994808;28;20092;-53
2022/01/16 11:14:28;;;;;;;102.53;66.40;;;;;;;;;;4994247;28;20054;-57
2022/01/16 11:16:58;;;;;;;103.63;64.22;;;;;;;;;;4994809;28;20073;-55
2022/01/16 11:19:26;;;;;;;109.70;70.45;;;;;;;;;;4995061;28;20037;-54
2022/01/16 11:21:55;;;;;;;92.78;56.17;;;;;;;;;;4994820;28;20097;-54
2022/01/16 11:24:36;;;;;;;85.32;51.95;;;;;;;;;;4994822;28;20031;-53
2022/01/16 11:27:02;;;;;;;88.43;55.13;;;;;;;;;;4995441;28;20018;-51
2022/01/16 11:29:29;;;;;;;83.93;52.50;;;;;;;;;;4994408;28;20054;-55
2022/01/16 11:31:58;;;;;;;97.00;56.95;;;;;;;;;;4994215;28;20030;-54
2022/01/16 11:34:24;;;;;;;114.50;68.47;;;;;;;;;;4994152;28;20471;-54
2022/01/16 11:36:51;;;;;;;100.05;60.03;;;;;;;;;;4994190;28;20030;-54
2022/01/16 11:39:17;;;;;;;89.78;56.05;;;;;;;;;;4994353;28;20076;-54
2022/01/16 11:41:56;;;;;;;113.90;69.15;;;;;;;;;;4994421;28;20467;-55
2022/01/16 11:44:28;;;;;;;155.30;95.72;;;;;;;;;;4994025;28;20049;-56
2022/01/16 11:46:56;;;;;;;160.82;101.20;;;;;;;;;;4994084;28;20031;-55
2022/01/16 11:49:32;;;;;;;119.80;75.88;;;;;;;;;;4994847;28;20023;-57
2022/01/16 11:52:05;;;;;;;121.03;72.45;;;;;;;;;;4994474;28;20029;-55
2022/01/16 11:54:33;;;;;;;164.98;94.22;;;;;;;;;;4993985;28;20023;-56
2022/01/16 11:57:08;;;;;;;134.75;79.80;;;;;;;;;;4993832;28;20034;-54
2022/01/16 11:59:34;;;;;;;124.55;76.10;;;;;;;;;;4994129;28;20037;-54
2022/01/16 12:02:01;;;;;;;136.13;82.70;;;;;;;;;;4994229;28;20414;-53
2022/01/16 12:04:30;;;;;;;128.13;77.18;;;;;;;;;;4993681;28;20114;-54
2022/01/16 12:07:22;;;;;;;153.50;99.05;;;;;;;;;;4993498;28;20034;-55
2022/01/16 12:09:50;;;;;;;125.82;77.95;;;;;;;;;;4974744;28;20117;-54
2022/01/16 12:12:16;;;;;;;125.82;80.70;;;;;;;;;;4992853;28;20069;-56
2022/01/16 12:14:49;;;;;;;129.05;78.35;;;;;;;;;;4978956;28;20023;-55
2022/01/16 12:17:40;;;;;;;125.70;78.07;;;;;;;;;;4977921;28;20026;-55
2022/01/16 12:20:15;;;;;;;123.93;76.95;;;;;;;;;;4978758;28;20491;-54
2022/01/16 12:22:46;;;;;;;129.23;78.18;;;;;;;;;;4978244;28;20087;-55
2022/01/16 12:25:19;;;;;;;122.20;73.82;;;;;;;;;;4978063;28;20031;-56
2022/01/16 12:30:52;;;;;;;120.50;73.20;;;;;;;;;;4976855;28;20033;-54
2022/01/16 12:33:24;;;;;;;126.82;79.32;;;;;;;;;;4977220;28;20026;-56
2022/01/16 12:35:50;;;;;;;123.13;76.35;;;;;;;;;;4977983;28;20026;-52
2022/01/16 12:38:17;;;;;;;100.05;62.85;;;;;;;;;;4978129;28;20023;-52
2022/01/16 12:40:44;;;;;;;83.45;51.25;;;;;;;;;;4977482;28;20101;-53
2022/01/16 12:43:16;;;;;;;93.03;54.90;;;;;;;;;;4977930;28;20034;-54
2022/01/16 12:45:42;;;;;;;107.10;67.63;;;;;;;;;;4977307;28;20035;-56
2022/01/16 12:48:09;;;;;;;109.25;64.78;;;;;;;;;;4978124;28;20535;-55
2022/01/16 12:50:36;;;;;;;105.45;64.13;;;;;;;;;;4977578;28;20502;-49
2022/01/16 12:53:02;;;;;;;102.70;61.65;;;;;;;;;;4977444;28;20067;-50
2022/01/16 12:55:29;;;;;;;104.47;61.15;;;;;;;;;;4977734;28;20023;-53
2022/01/16 12:58:14;;;;;;;88.63;53.92;;;;;;;;;;4977906;28;20423;-52
2022/01/16 13:00:59;;;;;;;80.43;48.15;;;;;;;;;;4977459;28;20085;-53
2022/01/16 13:03:28;;;;;;;84.63;52.45;;;;;;;;;;4977335;28;20057;-57
2022/01/16 13:06:13;;;;;;;92.72;56.22;;;;;;;;;;4977350;28;20118;-54
2022/01/16 13:09:03;;;;;;;98.00;58.80;;;;;;;;;;4987212;28;20096;-53
2022/01/16 13:11:31;;;;;;;106.22;63.70;;;;;;;;;;4986907;28;20034;-49
2022/01/16 13:13:58;;;;;;;101.25;63.08;;;;;;;;;;4996569;28;20047;-49
2022/01/16 13:16:26;;;;;;;102.97;62.60;;;;;;;;;;4996749;28;20026;-52
2022/01/16 13:18:59;;;;;;;92.53;57.83;;;;;;;;;;4996426;28;20026;-49
2022/01/16 13:21:32;;;;;;;95.82;58.97;;;;;;;;;;4995889;28;20040;-56
2022/01/16 13:23:59;;;;;;;99.40;61.50;;;;;;;;;;4996212;28;20066;-50
2022/01/16 13:26:26;;;;;;;95.03;58.75;;;;;;;;;;4996578;28;20105;-57
2022/01/16 13:28:59;;;;;;;89.82;55.70;;;;;;;;;;4996332;28;20029;-56
2022/01/16 13:31:26;;;;;;;93.20;57.15;;;;;;;;;;4996219;28;20030;-51
2022/01/16 13:34:07;;;;;;;110.45;66.82;;;;;;;;;;4996516;28;20383;-55
2022/01/16 13:36:33;;;;;;;109.97;66.30;;;;;;;;;;4996104;28;20368;-52
2022/01/16 13:38:59;;;;;;;113.97;65.65;;;;;;;;;;4996448;28;20026;-52
2022/01/16 13:41:25;;;;;;;91.68;53.50;;;;;;;;;;4996300;28;20034;-54
2022/01/16 13:43:51;;;;;;;103.95;56.55;;;;;;;;;;4996413;28;20041;-54
2022/01/16 13:46:18;;;;;;;108.05;56.60;;;;;;;;;;4996314;28;20521;-55
2022/01/16 13:48:44;;;;;;;105.32;57.33;;;;;;;;;;4995883;28;20371;-50
2022/01/16 13:51:10;;;;;;;100.10;55.55;;;;;;;;;;4996127;28;20073;-56
2022/01/16 13:53:42;;;;;;;94.38;51.78;;;;;;;;;;4996147;28;20041;-53
2022/01/16 13:56:28;;;;;;;98.70;53.35;;;;;;;;;;4995808;28;20120;-54
2022/01/16 13:58:56;;;;;;;112.70;59.05;;;;;;;;;;4996124;28;20054;-56
2022/01/16 14:01:24;;;;;;;213.30;105.18;;;;;;;;;;4995651;28;20033;-55
2022/01/16 14:03:52;;;;;;;117.65;61.50;;;;;;;;;;4995274;28;20490;-50
2022/01/16 14:06:19;;;;;;;133.52;69.00;;;;;;;;;;4996017;28;20056;-56
2022/01/16 14:08:52;;;;;;;78.28;40.90;;;;;;;;;;4995419;28;20129;-54
2022/01/16 14:11:20;;;;;;;66.45;37.78;;;;;;;;;;4995583;28;20022;-50
2022/01/16 14:13:47;;;;;;;214.10;108.38;;;;;;;;;;4995480;28;20041;-55
2022/01/16 14:16:14;;;;;;;147.15;69.78;;;;;;;;;;4995775;28;20023;-51
2022/01/16 14:18:53;;;;;;;76.15;37.90;;;;;;;;;;4995085;28;20026;-54
2022/01/16 14:24:04;;;;;;;114.75;56.08;;;;;;;;;;4995045;28;20376;-51
2022/01/16 14:26:30;;;;;;;132.43;62.85;;;;;;;;;;4994714;28;20023;-57
2022/01/16 14:28:56;;;;;;;79.93;45.55;;;;;;;;;;4995640;28;20406;-56
2022/01/16 14:31:23;;;;;;;64.03;36.05;;;;;;;;;;4994905;28;20489;-54
2022/01/16 14:33:50;;;;;;;69.88;36.92;;;;;;;;;;4994525;28;20027;-52
2022/01/16 14:36:17;;;;;;;77.68;39.47;;;;;;;;;;4994621;28;20101;-53
2022/01/16 14:38:43;;;;;;;83.70;42.15;;;;;;;;;;4995022;28;20018;-52
2022/01/16 14:41:12;;;;;;;84.30;43.40;;;;;;;;;;4995381;28;20053;-51
2022/01/16 14:43:57;;;;;;;72.43;36.42;;;;;;;;;;4994838;28;20033;-54
2022/01/16 14:46:24;;;;;;;87.05;40.00;;;;;;;;;;4995096;28;20045;-54
2022/01/16 14:48:51;;;;;;;81.68;40.50;;;;;;;;;;4994927;28;20467;-53
2022/01/16 14:51:18;;;;;;;118.95;67.45;;;;;;;;;;4994868;28;20026;-52
2022/01/16 14:53:44;;;;;;;78.25;39.72;;;;;;;;;;4994867;28;20041;-54